Time;durP1;ratioP1;P1;durP2;ratioP2;P2;SDS_P1;SDS_P2;PMS_P1;PMS_P2;Temp;Humidity;BMP_temperature;BMP_pressure;BME280_temperature;BME280_humidity;BME280_pressure;Samples;Min_cycle;Max_cycle;Signal;HPM_P1;HPM_P2
2024/03/14 00:02:09;;;;;;;7.80;6.90;;;13.10;99.90;;;;;;5037408;28;20511;-57
2024/03/14 00:04:36;;;;;;;8.70;6.53;;;13.00;99.90;;;;;;5038073;28;20456;-57
2024/03/14 00:07:05;;;;;;;8.00;7.23;;;13.00;99.90;;;;;;5037020;28;20461;-57
2024/03/14 00:09:33;;;;;;;13.70;6.83;;;13.00;99.90;;;;;;5037445;28;20445;-57
2024/03/14 00:12:00;;;;;;;8.77;6.27;;;13.00;99.90;;;;;;5036828;28;21038;-57
2024/03/14 00:14:27;;;;;;;9.43;6.40;;;13.00;99.90;;;;;;5036907;28;20454;-56
2024/03/14 00:16:54;;;;;;;8.07;6.37;;;13.00;99.90;;;;;;5036786;28;20548;-57
2024/03/14 00:19:20;;;;;;;7.73;5.93;;;13.00;99.90;;;;;;5036197;28;20532;-57
2024/03/14 00:21:47;;;;;;;9.63;6.67;;;13.00;99.90;;;;;;5036473;28;20995;-57
2024/03/14 00:24:16;;;;;;;8.20;6.50;;;13.00;99.90;;;;;;5036754;28;20429;-57
2024/03/14 00:26:43;;;;;;;8.27;5.53;;;13.00;99.90;;;;;;5036639;28;20469;-57
2024/03/14 00:29:10;;;;;;;7.77;6.97;;;13.00;99.90;;;;;;5036766;28;20544;-57
2024/03/14 00:31:38;;;;;;;8.57;7.10;;;13.00;99.90;;;;;;5036359;28;20441;-57
2024/03/14 00:34:07;;;;;;;9.40;6.30;;;13.00;99.90;;;;;;5036379;28;20959;-57
2024/03/14 00:36:37;;;;;;;16.00;7.10;;;13.00;99.90;;;;;;5036611;28;20471;-57
2024/03/14 00:39:07;;;;;;;7.67;6.80;;;13.00;99.90;;;;;;5037101;28;20436;-56
2024/03/14 00:41:34;;;;;;;7.17;6.47;;;13.00;99.90;;;;;;5036671;28;20481;-57
2024/03/14 00:44:03;;;;;;;11.03;7.17;;;13.00;99.90;;;;;;5036580;28;20437;-57
2024/03/14 00:46:30;;;;;;;10.33;6.00;;;13.00;99.90;;;;;;5036651;28;20519;-57
2024/03/14 00:48:56;;;;;;;8.80;6.23;;;13.00;99.90;;;;;;5036355;28;20452;-57
2024/03/14 00:51:24;;;;;;;6.70;6.10;;;12.90;99.90;;;;;;5036042;28;20448;-56
2024/03/14 00:53:51;;;;;;;7.20;6.23;;;12.90;99.90;;;;;;5035689;28;20446;-57
2024/03/14 00:56:17;;;;;;;7.40;6.63;;;12.80;99.90;;;;;;5035608;28;20600;-57
2024/03/14 00:58:44;;;;;;;7.27;6.20;;;12.80;99.90;;;;;;5035766;28;20871;-57
2024/03/14 01:01:11;;;;;;;8.80;5.97;;;12.80;99.90;;;;;;5036027;28;20484;-57
2024/03/14 01:03:38;;;;;;;6.30;5.80;;;12.80;99.90;;;;;;5036035;28;20551;-57
2024/03/14 01:06:11;;;;;;;7.17;6.47;;;12.80;99.90;;;;;;5035934;28;20438;-57
2024/03/14 01:08:37;;;;;;;8.60;6.17;;;12.80;99.90;;;;;;5036774;28;20505;-57
2024/03/14 01:11:04;;;;;;;8.03;5.57;;;12.80;99.90;;;;;;5035991;28;20447;-57
2024/03/14 01:13:31;;;;;;;7.53;5.83;;;12.80;99.90;;;;;;5035621;28;20437;-57
2024/03/14 01:15:58;;;;;;;9.00;6.23;;;12.80;99.90;;;;;;5035855;28;20452;-57
2024/03/14 01:18:25;;;;;;;6.87;5.60;;;12.70;99.90;;;;;;5035895;28;20556;-57
2024/03/14 01:20:52;;;;;;;6.00;5.50;;;12.70;99.90;;;;;;5035762;28;20481;-57
2024/03/14 01:23:19;;;;;;;5.60;5.10;;;12.70;99.90;;;;;;5035550;28;20932;-57
2024/03/14 01:25:46;;;;;;;6.67;5.53;;;12.70;99.90;;;;;;5035647;28;20453;-57
2024/03/14 01:28:13;;;;;;;8.30;5.63;;;12.70;99.90;;;;;;5035533;28;20461;-57
2024/03/14 01:30:42;;;;;;;11.73;5.63;;;12.60;99.90;;;;;;5034783;28;20449;-57
2024/03/14 01:33:09;;;;;;;8.10;5.27;;;12.60;99.90;;;;;;5035986;28;20447;-57
2024/03/14 01:35:35;;;;;;;8.53;5.03;;;12.60;99.90;;;;;;5035618;28;20809;-57
2024/03/14 01:38:02;;;;;;;5.57;5.03;;;12.60;99.90;;;;;;5035564;28;20468;-57
2024/03/14 01:40:31;;;;;;;11.17;6.20;;;12.50;99.90;;;;;;5035561;28;20905;-57
2024/03/14 01:42:57;;;;;;;7.27;5.30;;;12.50;99.90;;;;;;5035704;28;20495;-57
2024/03/14 01:45:24;;;;;;;9.10;5.77;;;12.50;99.90;;;;;;5035298;28;21011;-57
2024/03/14 01:47:51;;;;;;;6.00;5.40;;;12.50;99.90;;;;;;5035561;28;20461;-57
2024/03/14 01:50:18;;;;;;;8.03;5.90;;;12.50;99.90;;;;;;5035556;28;20438;-57
2024/03/14 01:52:45;;;;;;;10.57;6.07;;;12.40;99.90;;;;;;5035502;28;20441;-57
2024/03/14 01:55:13;;;;;;;8.73;6.57;;;12.40;99.90;;;;;;5035160;28;20937;-57
2024/03/14 01:57:41;;;;;;;6.63;5.63;;;12.40;99.90;;;;;;5035282;28;20556;-57
2024/03/14 02:00:11;;;;;;;7.83;5.73;;;12.40;99.90;;;;;;5035610;28;20445;-57
2024/03/14 02:02:38;;;;;;;5.77;5.20;;;12.40;99.90;;;;;;5035951;28;20477;-57
2024/03/14 02:05:10;;;;;;;5.47;4.93;;;12.30;99.90;;;;;;5035350;28;20457;-57
2024/03/14 02:07:37;;;;;;;9.43;5.37;;;12.30;99.90;;;;;;5036258;28;20461;-57
2024/03/14 02:10:04;;;;;;;6.63;5.53;;;12.30;99.90;;;;;;5035554;28;20445;-57
2024/03/14 02:12:31;;;;;;;9.87;6.73;;;12.20;99.90;;;;;;5035260;28;20441;-57
2024/03/14 02:15:01;;;;;;;6.70;5.73;;;12.20;99.90;;;;;;5035052;28;20525;-57
2024/03/14 02:17:28;;;;;;;6.90;5.43;;;12.20;99.90;;;;;;5035481;28;20912;-57
2024/03/14 02:19:55;;;;;;;6.00;5.20;;;12.20;99.90;;;;;;5035364;28;20477;-57
2024/03/14 02:22:22;;;;;;;8.93;5.60;;;12.20;99.90;;;;;;5034842;28;21062;-57
2024/03/14 02:24:51;;;;;;;8.03;5.70;;;12.20;99.90;;;;;;5035242;28;20434;-57
2024/03/14 02:27:18;;;;;;;6.27;5.63;;;12.10;99.90;;;;;;5035439;28;20517;-57
2024/03/14 02:29:44;;;;;;;6.07;5.00;;;12.10;99.90;;;;;;5034741;28;20437;-56
2024/03/14 02:32:11;;;;;;;6.30;5.43;;;12.10;99.90;;;;;;5035159;28;20468;-57
2024/03/14 02:34:38;;;;;;;7.40;5.20;;;12.10;99.90;;;;;;5035089;28;20446;-57
2024/03/14 02:37:05;;;;;;;8.23;4.90;;;12.10;99.90;;;;;;5034997;28;20472;-57
2024/03/14 02:39:34;;;;;;;7.03;4.60;;;12.10;99.90;;;;;;5035106;28;20538;-57
2024/03/14 02:42:01;;;;;;;6.77;4.40;;;12.10;99.90;;;;;;5036063;28;20477;-57
2024/03/14 02:44:28;;;;;;;6.80;5.20;;;12.10;99.90;;;;;;5038774;28;20526;-57
2024/03/14 02:46:56;;;;;;;5.10;4.63;;;12.10;99.90;;;;;;5038674;28;20465;-57
2024/03/14 02:49:23;;;;;;;4.27;3.87;;;12.10;99.90;;;;;;5038848;28;20441;-57
2024/03/14 02:51:50;;;;;;;5.43;4.30;;;12.00;99.90;;;;;;5038292;28;20444;-57
2024/03/14 02:54:16;;;;;;;4.90;4.40;;;12.10;99.90;;;;;;5038510;28;20469;-57
2024/03/14 02:56:47;;;;;;;4.80;4.20;;;12.10;99.90;;;;;;5038000;28;20500;-57
2024/03/14 02:59:14;;;;;;;10.03;5.17;;;12.10;99.90;;;;;;5038893;28;20893;-57
2024/03/14 03:01:41;;;;;;;5.50;4.43;;;12.10;99.90;;;;;;5038278;28;20503;-57
2024/03/14 03:04:09;;;;;;;7.00;4.33;;;12.10;99.90;;;;;;5038085;28;20446;-57
2024/03/14 03:06:43;;;;;;;5.40;3.80;;;12.10;99.90;;;;;;5038114;28;20470;-57
2024/03/14 03:09:10;;;;;;;8.10;4.40;;;12.10;99.90;;;;;;5039329;28;20422;-57
2024/03/14 03:11:37;;;;;;;6.70;4.30;;;12.10;99.90;;;;;;5037855;28;20465;-57
2024/03/14 03:14:05;;;;;;;4.27;3.87;;;12.10;99.90;;;;;;5038225;28;20492;-57
2024/03/14 03:16:32;;;;;;;5.70;4.30;;;12.10;99.90;;;;;;5038068;28;20515;-57
2024/03/14 03:18:59;;;;;;;5.30;3.70;;;12.10;99.90;;;;;;5038031;28;20441;-57
2024/03/14 03:21:27;;;;;;;8.70;5.50;;;12.00;99.90;;;;;;5038067;28;20508;-57
2024/03/14 03:23:53;;;;;;;4.70;3.97;;;12.00;99.90;;;;;;5038069;28;20442;-57
2024/03/14 03:26:20;;;;;;;8.60;3.67;;;12.00;99.90;;;;;;5037502;28;20835;-57
2024/03/14 03:28:46;;;;;;;9.40;4.10;;;12.00;99.90;;;;;;5037891;28;20206;-57
2024/03/14 03:31:13;;;;;;;9.23;4.60;;;12.00;99.90;;;;;;5037745;28;20956;-57
2024/03/14 03:33:39;;;;;;;5.83;4.60;;;12.00;99.90;;;;;;5037783;28;20213;-57
2024/03/14 03:36:06;;;;;;;4.07;3.77;;;12.00;99.90;;;;;;5037627;28;20446;-57
2024/03/14 03:38:32;;;;;;;8.50;3.97;;;12.00;99.90;;;;;;5037717;28;20361;-57
2024/03/14 03:41:01;;;;;;;5.00;3.63;;;12.00;99.90;;;;;;5037585;28;20509;-57
2024/03/14 03:43:27;;;;;;;5.10;3.97;;;12.00;99.90;;;;;;5037884;28;20446;-57
2024/03/14 03:45:57;;;;;;;7.47;4.47;;;12.00;99.90;;;;;;5037637;28;20822;-57
2024/03/14 03:48:23;;;;;;;5.73;4.10;;;12.00;99.90;;;;;;5037941;28;20620;-57
2024/03/14 03:50:50;;;;;;;8.13;4.80;;;12.00;99.90;;;;;;5037554;28;20476;-57
2024/03/14 03:53:16;;;;;;;3.90;3.40;;;12.00;99.90;;;;;;5036593;28;20468;-57
2024/03/14 03:55:43;;;;;;;4.20;3.53;;;12.00;99.90;;;;;;5036929;28;20948;-57
2024/03/14 03:58:09;;;;;;;4.47;4.07;;;12.00;99.90;;;;;;5037456;28;20231;-57
2024/03/14 04:00:41;;;;;;;5.47;3.70;;;12.00;99.90;;;;;;5037191;28;20488;-57
2024/03/14 04:03:07;;;;;;;10.63;4.40;;;12.00;99.90;;;;;;5038133;28;20188;-57
2024/03/14 04:05:34;;;;;;;6.80;4.47;;;12.00;99.90;;;;;;5036846;28;20844;-57
2024/03/14 04:08:00;;;;;;;7.20;4.20;;;12.00;99.90;;;;;;5037017;28;20462;-57
2024/03/14 04:10:27;;;;;;;5.40;4.57;;;12.00;99.90;;;;;;5036652;28;20833;-57
2024/03/14 04:12:54;;;;;;;8.03;4.63;;;12.00;99.90;;;;;;5037032;28;20203;-57
2024/03/14 04:15:22;;;;;;;5.27;3.70;;;12.00;99.90;;;;;;5036775;28;20540;-57
2024/03/14 04:17:49;;;;;;;5.50;4.17;;;11.90;99.90;;;;;;5037002;28;20464;-57
2024/03/14 04:20:17;;;;;;;8.50;4.73;;;11.90;99.90;;;;;;5037180;28;20441;-57
2024/03/14 04:22:44;;;;;;;4.83;4.10;;;12.00;99.90;;;;;;5037195;28;20486;-57
2024/03/14 04:25:14;;;;;;;4.63;4.23;;;12.00;99.90;;;;;;5036981;28;20441;-57
2024/03/14 04:27:41;;;;;;;5.20;4.47;;;12.00;99.90;;;;;;5037195;28;20501;-57
2024/03/14 04:30:10;;;;;;;5.17;4.67;;;11.90;99.90;;;;;;5036602;28;20448;-57
2024/03/14 04:32:39;;;;;;;9.13;4.63;;;11.90;99.90;;;;;;5037787;28;20437;-57
2024/03/14 04:35:08;;;;;;;7.27;4.43;;;11.90;99.90;;;;;;5036695;28;20943;-57
2024/03/14 04:37:36;;;;;;;6.40;4.77;;;11.90;99.90;;;;;;5036833;28;20475;-57
2024/03/14 04:40:09;;;;;;;7.17;4.70;;;11.90;99.90;;;;;;5036780;28;20448;-57
2024/03/14 04:42:36;;;;;;;6.10;3.83;;;11.80;99.90;;;;;;5037487;28;20468;-57
2024/03/14 04:45:04;;;;;;;5.87;3.93;;;11.80;99.90;;;;;;5036996;28;21053;-57
2024/03/14 04:47:32;;;;;;;5.27;4.07;;;11.80;99.90;;;;;;5036304;28;20466;-57
2024/03/14 04:49:59;;;;;;;6.00;4.33;;;11.80;99.90;;;;;;5036341;28;20966;-57
2024/03/14 04:52:27;;;;;;;4.77;3.73;;;11.80;99.90;;;;;;5036126;28;20438;-57
2024/03/14 04:54:54;;;;;;;4.30;3.60;;;11.80;99.90;;;;;;5036323;28;20971;-57
2024/03/14 04:57:21;;;;;;;6.23;3.90;;;11.70;99.90;;;;;;5035862;28;20478;-57
2024/03/14 04:59:49;;;;;;;4.37;3.97;;;11.70;99.90;;;;;;5036365;28;20445;-57
2024/03/14 05:02:16;;;;;;;4.37;3.60;;;11.70;99.90;;;;;;5036293;28;20522;-57
2024/03/14 05:04:43;;;;;;;4.03;3.63;;;11.70;99.90;;;;;;5035855;28;20442;-56
2024/03/14 05:07:11;;;;;;;4.47;4.07;;;11.60;99.90;;;;;;5036092;28;20465;-57
2024/03/14 05:09:38;;;;;;;7.83;3.80;;;11.60;99.90;;;;;;5035979;28;20954;-57
2024/03/14 05:12:07;;;;;;;4.67;4.30;;;11.60;99.90;;;;;;5035928;28;20488;-57
2024/03/14 05:14:34;;;;;;;5.50;4.93;;;11.60;99.90;;;;;;5036467;28;20445;-57
2024/03/14 05:17:01;;;;;;;5.50;4.00;;;11.60;99.90;;;;;;5035950;28;20465;-57
2024/03/14 05:19:28;;;;;;;5.80;5.07;;;11.60;99.90;;;;;;5036079;28;20503;-57
2024/03/14 05:21:55;;;;;;;7.33;4.10;;;11.60;99.90;;;;;;5036085;28;20481;-57
2024/03/14 05:24:24;;;;;;;7.37;3.80;;;11.60;99.90;;;;;;5035776;28;20452;-57
2024/03/14 05:26:51;;;;;;;8.30;4.20;;;11.60;99.90;;;;;;5036657;28;20466;-57
2024/03/14 05:29:18;;;;;;;7.30;4.20;;;11.50;99.90;;;;;;5035920;28;20448;-57
2024/03/14 05:31:45;;;;;;;9.17;3.77;;;11.50;99.90;;;;;;5035832;28;20445;-57
2024/03/14 05:34:12;;;;;;;7.17;4.00;;;11.50;99.90;;;;;;5036242;28;20442;-57
2024/03/14 05:36:39;;;;;;;4.10;3.40;;;11.50;99.90;;;;;;5035594;28;20773;-57
2024/03/14 05:39:07;;;;;;;8.33;4.77;;;11.50;99.90;;;;;;5035641;28;20528;-57
2024/03/14 05:41:34;;;;;;;5.07;4.13;;;11.50;99.90;;;;;;5035728;28;20802;-57
2024/03/14 05:44:01;;;;;;;5.30;4.37;;;11.50;99.90;;;;;;5035637;28;20452;-57
2024/03/14 05:46:28;;;;;;;9.90;5.03;;;11.50;99.90;;;;;;5035570;28;20552;-57
2024/03/14 05:48:56;;;;;;;10.37;5.20;;;11.40;99.90;;;;;;5035478;28;20444;-57
2024/03/14 05:51:23;;;;;;;7.87;4.73;;;11.50;99.90;;;;;;5035634;28;20787;-57
2024/03/14 05:53:50;;;;;;;7.23;5.60;;;11.40;99.90;;;;;;5035455;28;20814;-57
2024/03/14 05:56:18;;;;;;;6.07;5.03;;;11.40;99.90;;;;;;5035209;28;20459;-57
2024/03/14 05:58:45;;;;;;;10.13;6.50;;;11.40;99.90;;;;;;5035705;28;20452;-57
2024/03/14 06:01:12;;;;;;;5.90;5.00;;;11.40;99.90;;;;;;5035442;28;20472;-57
2024/03/14 06:03:42;;;;;;;8.43;5.77;;;11.40;99.90;;;;;;5035551;28;20521;-57
2024/03/14 06:06:09;;;;;;;9.27;5.30;;;11.40;99.90;;;;;;5035614;28;20442;-57
2024/03/14 06:08:36;;;;;;;6.00;5.50;;;11.30;99.90;;;;;;5034933;28;20499;-57
2024/03/14 06:11:03;;;;;;;7.20;5.60;;;11.30;99.90;;;;;;5035198;28;20442;-57
2024/03/14 06:13:30;;;;;;;7.00;6.40;;;11.30;99.90;;;;;;5035054;28;20956;-57
2024/03/14 06:15:57;;;;;;;7.20;6.10;;;11.20;99.90;;;;;;5035356;28;20436;-57
2024/03/14 06:18:24;;;;;;;6.37;5.70;;;11.20;99.90;;;;;;5038506;28;20525;-57
2024/03/14 06:20:51;;;;;;;9.50;6.27;;;11.20;99.90;;;;;;5039339;28;20437;-57
2024/03/14 06:23:17;;;;;;;5.70;4.90;;;11.20;99.90;;;;;;5039098;28;20489;-57
2024/03/14 06:25:43;;;;;;;6.77;5.47;;;11.10;99.90;;;;;;5038739;28;20826;-57
2024/03/14 06:28:10;;;;;;;6.70;6.10;;;11.20;99.90;;;;;;5038979;28;20231;-57
2024/03/14 06:30:37;;;;;;;7.33;5.50;;;11.10;99.90;;;;;;5038897;28;20444;-57
2024/03/14 06:33:04;;;;;;;6.53;5.93;;;11.00;99.90;;;;;;5039180;28;20888;-57
2024/03/14 06:35:31;;;;;;;7.27;5.27;;;11.10;99.90;;;;;;5038717;28;20437;-57
2024/03/14 06:37:59;;;;;;;7.00;6.30;;;11.10;99.90;;;;;;5038862;28;20493;-57
2024/03/14 06:40:28;;;;;;;5.83;5.23;;;11.10;99.90;;;;;;5038676;28;20504;-57
2024/03/14 06:42:55;;;;;;;7.07;5.33;;;11.20;99.90;;;;;;5038938;28;20548;-57
2024/03/14 06:45:22;;;;;;;6.20;5.60;;;11.20;99.90;;;;;;5038560;28;20958;-57
2024/03/14 06:47:49;;;;;;;5.53;5.10;;;11.30;99.90;;;;;;5038594;28;20564;-57
2024/03/14 06:50:16;;;;;;;6.10;5.20;;;11.40;99.90;;;;;;5038311;28;20438;-57
2024/03/14 06:52:43;;;;;;;9.43;5.33;;;11.50;99.90;;;;;;5038511;28;20448;-57
2024/03/14 06:55:12;;;;;;;7.23;4.97;;;11.50;99.90;;;;;;5038524;28;20445;-57
2024/03/14 06:57:40;;;;;;;5.77;4.87;;;11.50;99.90;;;;;;5038232;28;21053;-57
2024/03/14 07:00:12;;;;;;;4.20;3.83;;;11.60;99.90;;;;;;5038738;28;20499;-57
2024/03/14 07:02:40;;;;;;;5.37;4.60;;;11.60;99.90;;;;;;5039065;28;20470;-57
2024/03/14 07:05:09;;;;;;;7.57;5.10;;;11.60;99.90;;;;;;5038509;28;20446;-57
2024/03/14 07:07:36;;;;;;;6.00;5.50;;;11.60;99.90;;;;;;5038028;28;20984;-57
2024/03/14 07:10:04;;;;;;;5.40;4.33;;;11.60;99.90;;;;;;5037988;28;20947;-57
2024/03/14 07:12:33;;;;;;;4.60;4.20;;;11.60;99.90;;;;;;5038306;28;20844;-57
2024/03/14 07:15:00;;;;;;;7.63;4.50;;;11.70;99.90;;;;;;5038529;28;20471;-57
2024/03/14 07:17:27;;;;;;;4.83;4.33;;;11.70;99.90;;;;;;5038231;28;20898;-57
2024/03/14 07:19:54;;;;;;;5.17;4.07;;;11.70;99.90;;;;;;5037879;28;20441;-57
2024/03/14 07:22:24;;;;;;;6.23;3.93;;;11.70;99.90;;;;;;5038010;28;20487;-57
2024/03/14 07:24:53;;;;;;;5.00;4.50;;;11.70;99.90;;;;;;5038529;28;20445;-57
2024/03/14 07:27:20;;;;;;;5.63;4.03;;;11.70;99.90;;;;;;5038253;28;20501;-57
2024/03/14 07:29:47;;;;;;;6.13;4.33;;;11.80;99.90;;;;;;5038081;28;20441;-57
2024/03/14 07:32:15;;;;;;;6.30;4.37;;;11.80;99.90;;;;;;5037968;28;20447;-57
2024/03/14 07:34:44;;;;;;;6.53;4.70;;;11.90;99.90;;;;;;5037872;28;20811;-57
2024/03/14 07:37:13;;;;;;;8.30;4.53;;;11.90;99.90;;;;;;5038146;28;20516;-57
2024/03/14 07:39:40;;;;;;;4.00;3.70;;;12.10;99.90;;;;;;5037879;28;20448;-57
2024/03/14 07:42:07;;;;;;;5.67;3.90;;;12.10;99.90;;;;;;5037665;28;20519;-57
2024/03/14 07:44:35;;;;;;;4.60;4.20;;;12.20;99.90;;;;;;5037868;28;20463;-57
2024/03/14 07:47:03;;;;;;;4.00;3.60;;;12.20;99.90;;;;;;5037824;28;20501;-57
2024/03/14 07:49:30;;;;;;;3.87;3.50;;;12.30;99.90;;;;;;5037963;28;20573;-57
2024/03/14 07:51:57;;;;;;;3.97;3.30;;;12.40;99.90;;;;;;5037576;28;20449;-57
2024/03/14 07:54:27;;;;;;;5.03;3.80;;;12.40;99.90;;;;;;5037557;28;20567;-57
2024/03/14 07:56:54;;;;;;;4.63;3.93;;;12.60;99.90;;;;;;5037942;28;20477;-57
2024/03/14 07:59:23;;;;;;;4.80;3.77;;;12.60;99.90;;;;;;5037123;28;20830;-57
2024/03/14 08:01:51;;;;;;;4.33;3.93;;;12.70;99.90;;;;;;5037803;28;20446;-56
2024/03/14 08:04:23;;;;;;;4.20;3.40;;;12.70;99.90;;;;;;5037662;28;20530;-57
2024/03/14 08:06:50;;;;;;;4.20;3.27;;;12.70;99.90;;;;;;5037933;28;20458;-57
2024/03/14 08:09:19;;;;;;;3.70;3.40;;;12.80;99.90;;;;;;5037180;28;20453;-57
2024/03/14 08:11:45;;;;;;;5.43;3.70;;;12.80;99.90;;;;;;5037219;28;20469;-57
2024/03/14 08:14:13;;;;;;;3.60;3.27;;;12.90;99.90;;;;;;5037096;28;20522;-57
2024/03/14 08:16:39;;;;;;;5.27;3.30;;;13.00;99.90;;;;;;5037041;28;20462;-57
2024/03/14 08:19:09;;;;;;;3.50;3.30;;;13.00;99.90;;;;;;5037004;28;20536;-57
2024/03/14 08:21:36;;;;;;;5.43;3.90;;;13.10;99.90;;;;;;5037293;28;20545;-57
2024/03/14 08:24:09;;;;;;;3.70;3.40;;;13.10;99.90;;;;;;5036777;28;20495;-57
2024/03/14 08:26:37;;;;;;;3.93;3.53;;;13.20;99.90;;;;;;5037476;28;20837;-57
2024/03/14 08:29:04;;;;;;;4.07;3.40;;;13.20;99.90;;;;;;5036456;28;20453;-57
2024/03/14 08:31:31;;;;;;;3.80;3.50;;;13.20;99.90;;;;;;5036741;28;20446;-57
2024/03/14 08:33:58;;;;;;;3.83;3.40;;;13.30;99.90;;;;;;5036651;28;20448;-57
2024/03/14 08:36:27;;;;;;;3.27;3.00;;;13.30;99.90;;;;;;5036716;28;20461;-57
2024/03/14 08:38:54;;;;;;;4.60;3.47;;;13.30;99.90;;;;;;5036793;28;20448;-57
2024/03/14 08:41:22;;;;;;;5.60;3.37;;;13.30;99.90;;;;;;5036222;28;20446;-57
2024/03/14 08:43:49;;;;;;;3.90;2.83;;;13.40;99.90;;;;;;5036511;28;20510;-57
2024/03/14 08:46:18;;;;;;;4.00;3.30;;;13.40;99.90;;;;;;5036126;28;20943;-57
2024/03/14 08:48:44;;;;;;;4.10;3.80;;;13.50;99.90;;;;;;5036586;28;20449;-57
2024/03/14 08:51:11;;;;;;;3.27;2.93;;;13.60;99.90;;;;;;5036288;28;20493;-57
2024/03/14 08:54:07;;;;;;;32.70;28.67;;;13.70;99.90;;;;;;5036230;28;20438;-56
2024/03/14 08:56:35;;;;;;;10.73;9.60;;;13.80;99.90;;;;;;5040334;28;20582;-57
2024/03/14 08:59:02;;;;;;;3.63;3.43;;;14.00;99.90;;;;;;5035998;28;20485;-56
2024/03/14 09:01:29;;;;;;;5.90;3.23;;;14.00;99.90;;;;;;5036166;28;20487;-56
2024/03/14 09:03:56;;;;;;;3.33;2.93;;;14.00;99.90;;;;;;5035891;28;20482;-56
2024/03/14 09:06:25;;;;;;;3.20;2.90;;;14.10;99.90;;;;;;5036102;28;20545;-57
2024/03/14 09:08:52;;;;;;;3.50;3.20;;;14.20;99.90;;;;;;5036091;28;20965;-56
2024/03/14 09:11:20;;;;;;;3.83;3.20;;;14.40;99.90;;;;;;5035977;28;20441;-57
2024/03/14 09:13:47;;;;;;;3.17;2.87;;;14.50;99.90;;;;;;5036062;28;20442;-57
2024/03/14 09:16:16;;;;;;;2.50;2.30;;;14.70;99.90;;;;;;5035701;28;20480;-56
2024/03/14 09:18:43;;;;;;;3.07;2.87;;;14.90;99.90;;;;;;5035893;28;20532;-56
2024/03/14 09:21:10;;;;;;;5.60;5.10;;;15.10;99.90;;;;;;5035790;28;20442;-57
2024/03/14 09:23:39;;;;;;;4.70;4.30;;;15.30;99.80;;;;;;5035791;28;20521;-57
2024/03/14 09:26:06;;;;;;;3.50;3.13;;;15.40;99.30;;;;;;5035101;28;20870;-56
2024/03/14 09:28:32;;;;;;;3.27;2.97;;;15.60;99.10;;;;;;5035754;28;20540;-57
2024/03/14 09:31:00;;;;;;;2.80;2.60;;;15.80;98.70;;;;;;5039490;28;20541;-56
2024/03/14 09:33:27;;;;;;;3.23;2.93;;;15.80;97.70;;;;;;5036235;28;20442;-56
2024/03/14 09:35:54;;;;;;;3.17;2.87;;;16.00;98.20;;;;;;5035598;28;20448;-57
2024/03/14 09:38:22;;;;;;;3.77;3.13;;;16.10;97.80;;;;;;5035562;28;20477;-57
2024/03/14 09:40:50;;;;;;;6.03;3.03;;;16.20;96.80;;;;;;5035654;28;20835;-57
2024/03/14 09:43:19;;;;;;;3.80;2.87;;;16.20;97.00;;;;;;5035934;28;20580;-57
2024/03/14 09:45:48;;;;;;;4.50;4.10;;;16.20;97.00;;;;;;5035828;28;20832;-57
2024/03/14 09:48:15;;;;;;;4.50;4.10;;;16.30;96.50;;;;;;5035817;28;20557;-57
2024/03/14 09:50:42;;;;;;;3.53;3.00;;;16.30;96.60;;;;;;5035538;28;20455;-56
2024/03/14 09:53:10;;;;;;;4.00;2.90;;;16.30;96.30;;;;;;5038465;28;20438;-57
2024/03/14 09:55:38;;;;;;;7.93;2.83;;;16.40;96.10;;;;;;5039194;28;20904;-56
2024/03/14 09:58:06;;;;;;;3.23;3.03;;;16.40;95.20;;;;;;5039840;28;20458;-56
2024/03/14 10:00:33;;;;;;;3.30;3.00;;;16.40;95.70;;;;;;5039404;28;20441;-56
2024/03/14 10:03:01;;;;;;;3.40;3.10;;;16.40;95.70;;;;;;5039542;28;20530;-57
2024/03/14 10:05:28;;;;;;;3.97;2.70;;;16.50;96.10;;;;;;5039504;28;20445;-57
2024/03/14 10:07:57;;;;;;;3.10;2.57;;;16.70;96.40;;;;;;5039464;28;20564;-56
2024/03/14 10:10:24;;;;;;;3.70;2.40;;;17.10;96.20;;;;;;5039181;28;20446;-57
2024/03/14 10:12:52;;;;;;;2.43;2.23;;;17.50;95.70;;;;;;5039369;28;20472;-57
2024/03/14 10:15:20;;;;;;;3.07;2.17;;;18.00;94.90;;;;;;5039566;28;20441;-57
2024/03/14 10:17:47;;;;;;;4.90;2.30;;;18.50;94.10;;;;;;5039112;28;20979;-57
2024/03/14 10:20:17;;;;;;;2.90;2.20;;;19.10;92.80;;;;;;5039791;28;20448;-57
2024/03/14 10:22:44;;;;;;;2.27;2.07;;;19.70;91.40;;;;;;5039130;28;20974;-57
2024/03/14 10:25:13;;;;;;;3.20;2.40;;;20.30;88.70;;;;;;5039081;28;20447;-57
2024/03/14 10:27:41;;;;;;;2.43;2.20;;;20.70;84.20;;;;;;5039453;28;20518;-56
2024/03/14 10:30:09;;;;;;;2.60;2.00;;;20.90;80.10;;;;;;5039172;28;20495;-57
2024/03/14 10:32:38;;;;;;;2.00;1.90;;;20.90;78.30;;;;;;5039019;28;20449;-57
2024/03/14 10:35:09;;;;;;;2.77;2.30;;;20.80;77.30;;;;;;5039124;28;20433;-57
2024/03/14 10:37:37;;;;;;;4.00;1.70;;;20.70;76.60;;;;;;5039211;28;20511;-57
2024/03/14 10:40:06;;;;;;;2.73;2.53;;;20.80;76.30;;;;;;5039011;28;20447;-57
2024/03/14 10:42:33;;;;;;;2.47;2.33;;;21.20;75.10;;;;;;5040035;28;20446;-57
2024/03/14 10:45:00;;;;;;;5.57;2.63;;;21.60;72.90;;;;;;5038638;28;20489;-57
2024/03/14 10:47:28;;;;;;;2.70;2.37;;;22.10;68.80;;;;;;5038659;28;20472;-57
2024/03/14 10:49:54;;;;;;;4.87;2.53;;;22.50;66.70;;;;;;5038630;28;20536;-57
2024/03/14 10:52:21;;;;;;;3.10;2.77;;;22.90;65.40;;;;;;5038605;28;20441;-57
2024/03/14 10:54:48;;;;;;;3.00;2.00;;;23.40;62.20;;;;;;5038674;28;20528;-57
2024/03/14 10:57:16;;;;;;;4.93;2.77;;;23.80;61.30;;;;;;5038167;28;20473;-57
2024/03/14 10:59:44;;;;;;;3.90;2.60;;;24.40;58.20;;;;;;5038707;28;20445;-57
2024/03/14 11:02:13;;;;;;;4.73;3.10;;;24.90;56.70;;;;;;5038591;28;20442;-55
2024/03/14 11:04:40;;;;;;;3.23;2.37;;;25.50;54.40;;;;;;5038555;28;20968;-55
2024/03/14 11:07:08;;;;;;;3.00;2.80;;;25.90;53.40;;;;;;5038386;28;20457;-55
2024/03/14 11:09:35;;;;;;;2.50;2.30;;;26.40;51.60;;;;;;5038356;28;20473;-55
2024/03/14 11:12:03;;;;;;;4.57;2.17;;;26.90;50.90;;;;;;5038397;28;20531;-55
2024/03/14 11:14:31;;;;;;;3.17;2.87;;;26.90;47.70;;;;;;5038106;28;20819;-55
2024/03/14 11:16:58;;;;;;;2.13;2.03;;;26.80;47.00;;;;;;5038218;28;20458;-55
2024/03/14 11:19:26;;;;;;;3.20;2.37;;;26.90;45.50;;;;;;5038287;28;20449;-55
2024/03/14 11:21:53;;;;;;;3.47;2.40;;;27.30;44.90;;;;;;5038311;28;20449;-55
2024/03/14 11:24:21;;;;;;;4.47;2.30;;;27.50;43.50;;;;;;5038027;28;20488;-55
2024/03/14 11:26:47;;;;;;;4.07;2.80;;;27.80;43.40;;;;;;5038060;28;20468;-55
2024/03/14 11:29:17;;;;;;;2.30;2.10;;;28.10;42.10;;;;;;5038829;28;20460;-55
2024/03/14 11:31:45;;;;;;;2.80;1.90;;;28.10;41.70;;;;;;5038281;28;20495;-55
2024/03/14 11:34:16;;;;;;;3.07;2.20;;;28.20;41.60;;;;;;5037744;28;20506;-55
2024/03/14 11:36:43;;;;;;;2.50;2.13;;;28.40;40.80;;;;;;5038480;28;20832;-55
2024/03/14 11:39:15;;;;;;;3.43;2.13;;;28.40;39.80;;;;;;5037805;28;20459;-55
2024/03/14 11:41:42;;;;;;;1.50;1.40;;;28.50;39.30;;;;;;5038183;28;20441;-55
2024/03/14 11:44:15;;;;;;;1.57;1.47;;;28.60;38.60;;;;;;5037384;28;20477;-55
2024/03/14 11:46:42;;;;;;;2.53;1.70;;;28.90;38.10;;;;;;5037966;28;20456;-55
2024/03/14 11:49:16;;;;;;;4.00;1.70;;;29.20;37.90;;;;;;5037705;28;20535;-55
2024/03/14 11:51:44;;;;;;;2.87;2.13;;;29.50;36.60;;;;;;5037703;28;20433;-55
2024/03/14 11:54:11;;;;;;;2.70;2.07;;;29.70;35.30;;;;;;5037361;28;20955;-55
2024/03/14 11:56:40;;;;;;;1.77;1.67;;;29.90;36.90;;;;;;5037323;28;20468;-55
2024/03/14 11:59:11;;;;;;;1.97;1.77;;;30.30;35.40;;;;;;5037315;28;20943;-55
2024/03/14 12:01:38;;;;;;;2.67;1.87;;;30.60;35.60;;;;;;5038479;28;20438;-55
2024/03/14 12:04:06;;;;;;;2.37;2.07;;;31.10;35.70;;;;;;5037325;28;20488;-55
2024/03/14 12:06:35;;;;;;;2.23;2.03;;;31.40;34.60;;;;;;5037696;28;20537;-55
2024/03/14 12:09:03;;;;;;;2.00;1.90;;;31.60;34.30;;;;;;5037554;28;20566;-55
2024/03/14 12:11:31;;;;;;;3.30;2.57;;;32.00;34.30;;;;;;5037317;28;20448;-55
2024/03/14 12:13:58;;;;;;;4.27;2.30;;;32.30;32.20;;;;;;5037058;28;20437;-55
2024/03/14 12:16:25;;;;;;;2.20;1.90;;;32.40;32.20;;;;;;5036597;28;20461;-55
2024/03/14 12:18:52;;;;;;;1.67;1.47;;;32.50;31.90;;;;;;5037078;28;20798;-55
2024/03/14 12:21:19;;;;;;;1.97;1.63;;;32.70;32.30;;;;;;5037164;28;20440;-55
2024/03/14 12:23:51;;;;;;;2.40;2.20;;;32.90;31.30;;;;;;5036887;28;20222;-55
2024/03/14 12:26:18;;;;;;;2.23;2.10;;;32.90;30.60;;;;;;5037086;28;20475;-55
2024/03/14 12:28:46;;;;;;;2.00;1.90;;;32.90;30.30;;;;;;5036917;28;20209;-55
2024/03/14 12:31:13;;;;;;;1.80;1.70;;;32.90;30.90;;;;;;5036913;28;20202;-55
2024/03/14 12:33:44;;;;;;;2.30;2.10;;;33.10;30.20;;;;;;5036876;28;20252;-55
2024/03/14 12:36:16;;;;;;;3.70;1.63;;;33.30;30.00;;;;;;5037022;28;20222;-55
2024/03/14 12:38:50;;;;;;;1.70;1.57;;;33.50;29.20;;;;;;5037745;28;20191;-55
2024/03/14 12:41:17;;;;;;;1.92;1.25;;;33.90;28.80;;;;;;5037436;28;20186;-55
2024/03/14 12:43:45;;;;;;;1.43;1.33;;;34.20;28.80;;;;;;5036740;28;20202;-55
2024/03/14 12:46:13;;;;;;;4.55;2.40;;;34.20;28.60;;;;;;5036666;28;20617;-55
2024/03/14 12:48:41;;;;;;;2.10;1.90;;;34.10;27.90;;;;;;5036279;28;20198;-55